Grodno, Belarus
Current Conditions -  °F | °C
As of 11:50 AM on Sunday 21 Dec 2014 (Local Time) from EYVI Reporting Station
Broken Clouds Broken Clouds  
Wind Chill: 24°   Ceiling: 600
Heat Index: 34°   Visibility: 5mi
Dew Point: 34°   Wind: 14mph
Humidity: 100%   Direction: 290°WNW
Pressure: 29.68"   Gusts: NA
Location:  53.6°N, 24.05°E
Report Text: EYVI 210950Z 29012KT 250V310 8000 BKN006 01/01 Q1005 R20/2///95 NOSIG
Loading
Personal Weather Stations






























Interactive Weather Map New forecast layout! Learn more

10-Day Weather Forecast

Advertisements
Track Severe Weather on mobile